Chisholm Hibbing Airport
KHIB : now visible

Airfield :











YOU CAN JOIN US ON...

 
LOGIN :

Register | Disclaimer

   EN    FR    IT 

 









Legend :    VFR   Marginal VFR   IFR   Intensive IFR   Very Intensive IFR
Visi :
Ceiling :
>= 8 km
>= 3000ft
5 to 8 km
1000 to 3000 ft
1500m to 5 km
500 to 1000 ft
800 to 1500m
200 to 500 ft
< 800m
< 200 ft
Symbols :   Thunderstorms  Fog  Heavy snow  Heavy precipitations  Wind > 20 kt






- Airport Elevation : 1354 ft
- IATA code : HIB


KHIB - Chisholm Hibbing

CURRENT METAR :
  • 160653Z AUTO 32004KT 10SM CLR M01/M04 A3010 RMK AO2 SLP210 T10111044

EXPIRED METARs :
  • 160553Z AUTO 34004KT 10SM CLR 00/M03 A3011 RMK AO2 SLP212 T00001033 10106 21017 401171017 53006
  • 160453Z AUTO 00000KT 10SM CLR 00/M03 A3009 RMK AO2 SLP208 T00001033

TAF KHIB
Valid from the 16 at 06:00 until the 17 at 06:00 UTC


160534Z 1606/1706 00000KT P6SM SKC
FM161500 34007KT P6SM SCT100
KZMP FIR / North America



MET'MAP, your aeronautical weather chart ! - Copyright ORBIFLY December 2007 - Disclaimer

ORBIFLY MET'MAP TEAM :

Programming & Development : Alexandra Zaïnal
Concept & original design : Baudouin d'Aumeries
Assistance for programming : Marc-Olivier Méhu
Technical & hardware support : Manuel Goepfert

Contact : metmap@orbifly.com




SOURCES & CREDITS :

   NOAA       Earth
Advisory